Flight Track Log - Related Links

Times and Time Zones

All times are in EST time to prevent confusion due to time zone crossing. See the SWA4488 flight status page for this flight to view local times or setup timezone preferences in your user account.

Time Position Orientation Groundspeed Altitude Reporting Facility
EST Latitude Longitude Course Direction KTS km/h feet Rate Location/Type
Thu 21:43:54 33.9500 -118.4667 262° West 181 335 1.500  Level Southern California TRACON
Thu 21:45:01 33.9422 -118.5347 262° West 216 401 4.800 3.375 Climbing Los Angeles Center
Thu 21:46:02 33.8869 -118.5331 179° South 245 454 8.700 3.366 Climbing Los Angeles Center
Thu 21:47:04 33.9044 -118.4575 74° East 254 470 11.700 2.341 Climbing Los Angeles Center
Thu 21:48:05 33.9533 -118.3714 56° Northeast 324 600 13.500 2.585 Climbing Los Angeles Center
Thu 21:49:07 34.0081 -118.2747 56° Northeast 344 637 17.000 3.000 Climbing Los Angeles Center
Thu 21:50:09 34.0667 -118.1717 56° Northeast 368 681 19.700 2.732 Climbing Los Angeles Center
Thu 21:51:10 34.1281 -118.0650 55° Northeast 384 711 22.600 2.780 Climbing Los Angeles Center
Thu 21:52:12 34.1897 -117.9572 55° Northeast 389 721 25.400 2.293 Climbing Los Angeles Center
Thu 21:53:13 34.2528 -117.8475 55° Northeast 395 732 27.300 1.756 Climbing Los Angeles Center
Thu 21:54:15 34.3189 -117.7300 56° Northeast 417 772 29.000 1.659 Climbing Los Angeles Center
Thu 21:55:16 34.3917 -117.6019 55° Northeast 433 801 30.700 1.561 Climbing Los Angeles Center
Thu 21:56:18 34.4614 -117.4758 56° Northeast 450 834 32.200 1.951 Climbing Los Angeles Center
Thu 21:57:19 34.5447 -117.3272 56° Northeast 448 830 34.700 1.610 Climbing Los Angeles Center
Thu 21:58:21 34.6136 -117.2056 55° Northeast 444 822 35.500 726 Climbing Los Angeles Center
Thu 21:59:23 34.6839 -117.0806 56° Northeast 450 834 36.200 780 Climbing Los Angeles Center
Thu 22:00:24 34.7567 -116.9494 56° Northeast 469 869 37.100 1.180 Climbing Los Angeles Center
Thu 22:01:25 34.8439 -116.8378 46° Northeast 457 847 38.600 878 Climbing Los Angeles Center
Thu 22:02:27 34.9300 -116.7242 47° Northeast 457 847 38.900 194 Climbing Los Angeles Center
Thu 22:03:29 35.0183 -116.6078 47° Northeast 465 861 39.000 49 Climbing Los Angeles Center
Thu 22:04:30 35.1231 -116.4647 48° Northeast 471 872 39.000  Level Los Angeles Center
Thu 22:05:31 35.2128 -116.3464 47° Northeast 474 877 39.000  Level Los Angeles Center
Thu 22:06:33 35.3008 -116.2267 48° Northeast 476 882 39.000  Level Los Angeles Center
Thu 22:07:34 35.3858 -116.1086 49° Northeast 466 863 39.000  Level Los Angeles Center
Thu 22:08:36 35.4717 -115.9911 48° Northeast 465 861 39.000  Level Los Angeles Center
Thu 22:09:37 35.5728 -115.8586 47° Northeast 465 861 39.000  Level Los Angeles Center
Thu 22:10:39 35.6439 -115.7250 57° Northeast 472 874 39.000  Level Los Angeles Center
Thu 22:11:40 35.7017 -115.5772 64° Northeast 481 892 39.000  Level Los Angeles Center
Thu 22:12:42 35.7586 -115.4311 64° Northeast 479 887 39.000  Level Los Angeles Center
Thu 22:13:43 35.8150 -115.2861 64° Northeast 476 882 39.000  Level Los Angeles Center
Thu 22:14:45 35.8672 -115.1431 66° East 465 861 39.000  Level Los Angeles Center
Thu 22:15:46 35.9344 -114.9722 64° Northeast 465 861 39.000  Level Los Angeles Center
Thu 22:16:48 35.9900 -114.8236 65° Northeast 475 880 39.000  Level Los Angeles Center
Thu 22:17:49 36.0453 -114.6783 65° Northeast 473 875 39.000  Level Los Angeles Center
Thu 22:18:51 36.1006 -114.5333 65° Northeast 470 871 39.000  Level Los Angeles Center
Thu 22:19:53 36.1561 -114.3872 65° Northeast 470 871 39.000  Level Los Angeles Center
Thu 22:20:54 36.2111 -114.2411 65° Northeast 470 871 39.000  Level Los Angeles Center
Thu 22:21:56 36.2664 -114.0931 65° Northeast 472 874 39.000  Level Los Angeles Center
Thu 22:22:57 36.3325 -113.9142 65° Northeast 475 880 39.000  Level Los Angeles Center
Thu 22:23:59 36.3875 -113.7642 65° Northeast 477 884 39.000  Level Los Angeles Center
Thu 22:25:00 36.4431 -113.6122 66° East 479 887 39.000  Level Los Angeles Center
Thu 22:26:02 36.5000 -113.4622 65° Northeast 480 888 39.000  Level Los Angeles Center
Thu 22:27:03 36.5561 -113.3131 65° Northeast 480 888 39.000  Level Los Angeles Center
Thu 22:28:05 36.6108 -113.1628 66° East 480 888 39.000  Level Los Angeles Center
Thu 22:29:06 36.6656 -113.0094 66° East 483 895 39.000  Level Los Angeles Center
Thu 22:30:08 36.7306 -112.8278 66° East 482 893 39.000  Level Los Angeles Center
Thu 22:31:10 36.7850 -112.6778 66° East 480 888 39.000  Level Los Angeles Center
Thu 22:32:11 36.8383 -112.5294 66° East 476 882 39.000  Level Los Angeles Center
Thu 22:33:13 36.8900 -112.3806 67° East 473 875 39.000  Level Los Angeles Center
Thu 22:34:14 36.9422 -112.2328 66° East 470 871 39.000  Level Los Angeles Center
Thu 22:35:16 36.9950 -112.0853 66° East 469 869 39.000  Level Los Angeles Center
Thu 22:35:52 37.0264 -111.9947 67° East 470 871 39.000  Level Denver Center
Thu 22:36:53 37.0894 -111.8144 66° East 472 874 39.000  Level Denver Center
Thu 22:37:55 37.1417 -111.6636 66° East 473 875 39.000  Level Denver Center
Thu 22:38:57 37.1933 -111.5119 67° East 475 880 39.000  Level Denver Center
Thu 22:39:59 37.2453 -111.3589 67° East 478 885 39.000  Level Denver Center
Thu 22:41:00 37.2981 -111.2044 67° East 482 893 39.000  Level Denver Center
Thu 22:42:02 37.3500 -111.0503 67° East 482 893 39.000  Level Denver Center
Thu 22:43:04 37.4019 -110.8950 67° East 483 895 39.000  Level Denver Center
Thu 22:44:06 37.4647 -110.7114 67° East 479 887 39.000  Level Denver Center
Thu 22:45:08 37.4997 -110.5489 75° East 487 901 39.000  Level Denver Center
Thu 22:46:09 37.4878 -110.3889 95° East 487 901 39.000  Level Denver Center
Thu 22:47:11 37.4244 -110.2322 117° Southeast 490 908 39.000  Level Denver Center
Thu 22:48:13 37.3583 -110.0775 118° Southeast 488 904 39.000  Level Denver Center
Thu 22:49:15 37.3081 -109.9017 110° East 492 911 39.000  Level Denver Center
Thu 22:50:16 37.3647 -109.7569 64° Northeast 491 909 39.000  Level Denver Center
Thu 22:51:18 37.4619 -109.6569 39° Northeast 476 882 39.000  Level Denver Center
Thu 22:52:20 37.5758 -109.5442 38° Northeast 466 863 39.000  Level Denver Center
Thu 22:53:22 37.6811 -109.4703 29° Northeast 455 843 39.000  Level Denver Center
Thu 22:54:23 37.8044 -109.3825 29° Northeast 455 843 39.000  Level Denver Center
Thu 22:55:25 37.8819 -109.2647 50° Northeast 476 882 39.000  Level Denver Center
Thu 22:56:27 37.9408 -109.0972 66° East 468 867 39.000  Level Denver Center
Thu 22:57:28 37.9908 -108.9539 66° East 467 864 39.000  Level Denver Center
Thu 22:58:42 38.0567 -108.7631 66° East 464 859 39.000  Level Denver Center
Thu 22:59:44 38.1044 -108.6219 67° East 466 863 39.000  Level Denver Center
Thu 23:00:46 38.1619 -108.4556 66° East 464 859 39.000  Level Denver Center
Thu 23:01:47 38.2103 -108.3119 67° East 462 856 39.000  Level Denver Center
Thu 23:02:49 38.2667 -108.1458 67° East 460 851 39.000  Level Denver Center
Thu 23:03:51 38.3153 -108.0039 66° East 460 851 39.000  Level Denver Center
Thu 23:04:52 38.3717 -107.8361 67° East 461 855 39.000  Level Denver Center
Thu 23:05:54 38.4197 -107.6900 67° East 465 861 39.000  Level Denver Center
Thu 23:06:55 38.4753 -107.5450 64° Northeast 472 874 39.000 -537 Level Denver Center
Thu 23:07:57 38.5467 -107.3819 61° Northeast 467 864 37.900 -968 Descending Denver Center
Thu 23:08:59 38.6119 -107.2392 60° Northeast 481 892 37.000 -927 Descending Denver Center
Thu 23:10:00 38.6839 -107.0753 61° Northeast 477 884 36.000 -878 Descending Denver Center
Thu 23:11:02 38.7447 -106.9381 60° Northeast 470 871 35.200 -774 Descending Denver Center
Thu 23:12:04 38.8164 -106.7783 60° Northeast 465 861 34.400 -878 Descending Denver Center
Thu 23:13:05 38.8761 -106.6425 61° Northeast 460 851 33.400 -889 Descending Denver Center
Thu 23:14:19 38.9333 -106.5169 60° Northeast 435 806 32.400 -1.015 Descending Denver Center
Thu 23:15:21 39.0100 -106.3531 59° Northeast 420 777 31.100 -1.171 Descending Denver Center
Thu 23:16:22 39.0725 -106.2139 60° Northeast 404 748 30.000 -1.024 Descending Denver Center
Thu 23:17:24 39.1203 -106.1081 60° Northeast 386 715 29.000 -1.463 Descending Denver Center
Thu 23:18:25 39.1722 -105.9875 61° Northeast 383 710 27.000 -2.049 Descending Denver Center
Thu 23:19:27 39.2244 -105.8689 60° Northeast 379 702 24.800 -2.341 Descending Denver Center
Thu 23:20:28 39.2875 -105.7256 60° Northeast 386 715 22.200 -2.098 Descending Denver Center
Thu 23:21:30 39.3372 -105.6108 61° Northeast 368 681 20.500 -1.500 Descending Denver Center
Thu 23:22:32 39.3858 -105.5006 60° Northeast 351 650 19.100 -1.366 Descending Denver Center
Thu 23:23:33 39.3997 -105.3844 81° East 324 600 17.700 -1.415 Descending Denver Center
Thu 23:24:35 39.4042 -105.2697 87° East 323 599 16.200 -1.512 Descending Denver Center
Thu 23:25:36 39.4103 -105.1469 86° East 320 592 14.600 -1.366 Descending Denver Center
Thu 23:26:38 39.4153 -105.0325 87° East 320 592 13.400 -780 Descending Denver Center
Thu 23:27:39 39.4206 -104.9297 86° East 289 536 13.000 -829 Descending Denver Center
Thu 23:28:41 39.4297 -104.8269 83° East 269 499 11.700 -976 Descending Denver Center
Thu 23:29:42 39.4453 -104.7333 78° East 271 502 11.000 -341 Descending Denver Center
Thu 23:30:44 39.4925 -104.6803 41° Northeast 243 451 11.000 -244 Level Denver Center
Thu 23:31:45 39.5581 -104.6650 10° North 218 404 10.500 -634 Descending Denver Center
Thu 23:32:47 39.6119 -104.6631 North 195 360 9.700 -732 Descending Denver Center
Thu 23:33:48 39.6667 -104.6619 North 197 365 9.000 -976 Descending Denver Center
Thu 23:34:50 39.7239 -104.6619 360° North 192 356 7.700 -1.171 Descending Denver Center
Thu 23:35:51 39.7728 -104.6614 North 177 328 6.600 -976 Descending Denver Center
Thu 23:36:53 39.8150 -104.6611 360° North 157 291 5.700 -585 Descending Denver Center
Thu 23:37:54 39.8494 -104.6617 359° North 124 230 5.400 -295 Descending Denver Center
Thu 23:39:00 39.8500 -104.6667 North  Level FlightAware Approximate
Thu 23:46:00 39.8617 -104.6732 North  Level Estimated
Thu 23:47:00 39.8617 -104.6732 North  Level Estimated
Thu 23:48:00 39.8617 -104.6732 North  Level Estimated

Login

Don't have an account? Register now (free) for customized features, flight alerts, and more!